Time;durP1;ratioP1;P1;durP2;ratioP2;P2;SDS_P1;SDS_P2;PMS_P1;PMS_P2;Temp;Humidity;BMP_temperature;BMP_pressure;BME280_temperature;BME280_humidity;BME280_pressure;Samples;Min_cycle;Max_cycle;Signal;HPM_P1;HPM_P2
2023/10/27 00:00:53;;;;;;;;;;;;;;;-140.72;100.00;60979.25;5071949;28;20294;-70
2023/10/27 00:03:18;;;;;;;;;;;;;;;-140.72;100.00;60969.09;5067647;28;20298;-70
2023/10/27 00:05:44;;;;;;;;;;;;;;;-140.72;100.00;60997.56;5066666;28;20011;-70
2023/10/27 00:08:09;;;;;;;;;;;;;;;-140.72;100.00;61011.81;5070901;28;19932;-71
2023/10/27 00:10:37;;;;;;;;;;;;;;;-140.72;100.00;61007.72;5062761;28;20324;-70
2023/10/27 00:13:02;;;;;;;;;;;;;;;-140.72;100.00;60993.50;5073716;28;19920;-71
2023/10/27 00:15:27;;;;;;;;;;;;;;;-140.72;100.00;60991.47;5067445;28;19982;-72
2023/10/27 00:17:56;;;;;;;;;;;;;;;-140.72;100.00;61001.63;5075183;28;19916;-70
2023/10/27 00:20:22;;;;;;;;;;;;;;;-140.72;100.00;61044.34;5087924;28;19954;-70
2023/10/27 00:22:47;;;;;;;;;;;;;;;-140.72;100.00;60987.41;5071783;28;19921;-70
2023/10/27 00:25:12;;;;;;;;;;;;;;;-140.72;100.00;61034.16;5073454;28;19932;-70
2023/10/27 00:27:37;;;;;;;;;;;;;;;-140.72;100.00;61066.69;5075676;28;19919;-70
2023/10/27 00:30:03;;;;;;;;;;;;;;;-140.72;100.00;61026.03;5068874;28;20418;-70
2023/10/27 00:32:29;;;;;;;;;;;;;;;-140.72;100.00;61085.00;5072216;28;20298;-70
2023/10/27 00:34:54;;;;;;;;;;;;;;;-140.72;100.00;61087.03;5069773;28;19921;-70
2023/10/27 00:37:19;;;;;;;;;;;;;;;-140.72;100.00;61070.78;5073487;28;20045;-70
2023/10/27 00:39:44;;;;;;;;;;;;;;;-140.72;100.00;61064.66;5074855;28;19921;-70
2023/10/27 00:42:09;;;;;;;;;;;;;;;-140.72;100.00;61091.09;5068225;28;19921;-70
2023/10/27 00:44:35;;;;;;;;;;;;;;;-140.72;100.00;61121.59;5071792;28;19976;-70
2023/10/27 00:47:01;;;;;;;;;;;;;;;-140.72;100.00;61121.59;5073972;28;19974;-70
2023/10/27 00:49:27;;;;;;;;;;;;;;;-140.72;100.00;61107.38;5066875;28;20355;-70
2023/10/27 00:51:53;;;;;;;;;;;;;;;-140.72;100.00;61119.56;5070917;28;20428;-70
2023/10/27 00:54:20;;;;;;;;;;;;;;;-140.72;100.00;61097.22;5070592;28;20010;-70
2023/10/27 00:56:45;;;;;;;;;;;;;;;-140.72;100.00;61123.66;5072044;28;19997;-70
2023/10/27 00:59:11;;;;;;;;;;;;;;;-140.72;100.00;61131.78;5065776;28;19916;-70
2023/10/27 01:01:37;;;;;;;;;;;;;;;-140.72;100.00;61137.88;5074085;28;19920;-70
2023/10/27 01:04:04;;;;;;;;;;;;;;;-140.72;100.00;61174.47;5067277;28;20272;-70
2023/10/27 01:06:30;;;;;;;;;;;;;;;-140.72;100.00;61150.09;5068365;28;20325;-70
2023/10/27 01:09:04;;;;;;;;;;;;;;;-140.72;100.00;61164.31;5073549;28;20071;-70
2023/10/27 01:11:29;;;;;;;;;;;;;;;-140.72;100.00;61188.72;5071521;28;19999;-70
2023/10/27 01:14:06;;;;;;;;;;;;;;;-140.72;100.00;61186.69;5070944;28;20021;-70
2023/10/27 01:16:31;;;;;;;;;;;;;;;-140.72;100.00;61215.16;5071296;28;19927;-70
2023/10/27 01:18:56;;;;;;;;;;;;;;;-140.72;100.00;61174.47;5074057;28;20291;-70
2023/10/27 01:21:22;;;;;;;;;;;;;;;-140.72;100.00;61217.19;5066716;28;20032;-70
2023/10/27 01:23:47;;;;;;;;;;;;;;;-140.72;100.00;61211.09;5070675;28;20409;-70
2023/10/27 01:26:12;;;;;;;;;;;;;;;-140.72;100.00;61251.75;5070039;28;19978;-70
2023/10/27 01:28:37;;;;;;;;;;;;;;;-140.72;100.00;61209.06;5065954;28;20036;-70
2023/10/27 01:31:02;;;;;;;;;;;;;;;-140.72;100.00;61276.16;5068046;28;19971;-70
2023/10/27 01:33:28;;;;;;;;;;;;;;;-140.72;100.00;61227.34;5071595;28;19964;-70
2023/10/27 01:35:54;;;;;;;;;;;;;;;-140.72;100.00;61268.03;5071788;28;19920;-70
2023/10/27 01:38:19;;;;;;;;;;;;;;;-140.72;100.00;61274.13;5069341;28;19927;-70
2023/10/27 01:40:44;;;;;;;;;;;;;;;-140.72;100.00;61288.38;5070193;28;19921;-70
2023/10/27 01:43:10;;;;;;;;;;;;;;;-140.72;100.00;61294.47;5068958;28;20231;-70
2023/10/27 01:45:35;;;;;;;;;;;;;;;-140.72;100.00;61302.59;5057776;28;19971;-70
2023/10/27 01:48:00;;;;;;;;;;;;;;;-140.72;100.00;61292.44;5066868;28;20006;-70
2023/10/27 01:50:26;;;;;;;;;;;;;;;-140.72;100.00;61294.47;5075972;28;20015;-70
2023/10/27 01:52:51;;;;;;;;;;;;;;;-140.72;100.00;61308.72;5069247;28;20371;-72
2023/10/27 01:55:16;;;;;;;;;;;;;;;-140.72;100.00;61296.50;5072894;28;20038;-70
2023/10/27 01:57:41;;;;;;;;;;;;;;;-140.72;100.00;61373.78;5070055;28;19976;-70
2023/10/27 02:00:07;;;;;;;;;;;;;;;-140.72;100.00;61333.09;5066479;28;20374;-70
2023/10/27 02:02:33;;;;;;;;;;;;;;;-140.72;100.00;61371.75;5065894;28;19925;-70
2023/10/27 02:04:58;;;;;;;;;;;;;;;-140.72;100.00;61329.03;5071254;28;20442;-70
2023/10/27 02:07:24;;;;;;;;;;;;;;;-140.72;100.00;61390.06;5077124;28;20355;-70
2023/10/27 02:09:50;;;;;;;;;;;;;;;-140.72;100.00;61365.66;5070548;28;20267;-70
2023/10/27 02:12:15;;;;;;;;;;;;;;;-140.72;100.00;61390.06;5072642;28;19924;-70
2023/10/27 02:14:40;;;;;;;;;;;;;;;-140.72;100.00;61337.19;5066103;28;20399;-70
2023/10/27 02:17:11;;;;;;;;;;;;;;;-140.72;100.00;61402.25;5071567;28;20081;-70
2023/10/27 02:19:37;;;;;;;;;;;;;;;-140.72;100.00;61396.16;5063956;28;19974;-70
2023/10/27 02:22:19;;;;;;;;;;;;;;;-140.72;100.00;61398.19;5070626;28;20007;-70
2023/10/27 02:24:44;;;;;;;;;;;;;;;-140.72;100.00;61400.22;5068843;28;20595;-70
2023/10/27 02:27:09;;;;;;;;;;;;;;;-140.72;100.00;61430.72;5070414;28;19921;-70
2023/10/27 02:29:35;;;;;;;;;;;;;;;-140.72;100.00;61404.28;5065384;28;19931;-70
2023/10/27 02:32:00;;;;;;;;;;;;;;;-140.72;100.00;61394.13;5069015;28;19928;-70
2023/10/27 02:34:50;;;;;;;;;;;;;;;-140.72;100.00;61392.09;5071663;28;19924;-70
2023/10/27 02:37:15;;;;;;;;;;;;;;;-140.72;100.00;61414.47;5074429;28;19921;-69
2023/10/27 02:39:41;;;;;;;;;;;;;;;-140.72;100.00;61428.69;5076464;28;19951;-69
2023/10/27 02:42:12;;;;;;;;;;;;;;;-140.72;100.00;61426.66;5075105;28;20386;-69
2023/10/27 02:44:37;;;;;;;;;;;;;;;-140.72;100.00;61426.66;5078153;28;19921;-70
2023/10/27 02:47:02;;;;;;;;;;;;;;;-140.72;100.00;61402.25;5073743;28;19923;-70
2023/10/27 02:49:28;;;;;;;;;;;;;;;-140.72;100.00;61438.88;5073852;28;20051;-70
2023/10/27 02:51:53;;;;;;;;;;;;;;;-140.72;100.00;61469.38;5070057;28;19921;-70
2023/10/27 02:54:18;;;;;;;;;;;;;;;-140.72;100.00;61434.78;5066864;28;20415;-69
2023/10/27 02:56:43;;;;;;;;;;;;;;;-140.72;100.00;61438.88;5076633;28;19996;-69
2023/10/27 02:59:09;;;;;;;;;;;;;;;-140.72;100.00;61444.97;5067662;28;20300;-69
2023/10/27 03:01:34;;;;;;;;;;;;;;;-140.72;100.00;61463.28;5069216;28;19927;-69
2023/10/27 03:03:59;;;;;;;;;;;;;;;-140.72;100.00;61499.88;5069046;28;19920;-69
2023/10/27 03:06:25;;;;;;;;;;;;;;;-140.72;100.00;61503.94;5066218;28;20586;-70
2023/10/27 03:08:50;;;;;;;;;;;;;;;-140.72;100.00;61540.56;5068370;28;19920;-70
2023/10/27 03:11:15;;;;;;;;;;;;;;;-140.72;100.00;61567.00;5071506;28;20345;-69
2023/10/27 03:13:41;;;;;;;;;;;;;;;-140.72;100.00;61569.03;5067885;28;19921;-70
2023/10/27 03:16:06;;;;;;;;;;;;;;;-140.72;100.00;61589.38;5070710;28;20395;-70
2023/10/27 03:18:32;;;;;;;;;;;;;;;-140.72;100.00;61577.16;5071880;28;19917;-70
2023/10/27 03:20:58;;;;;;;;;;;;;;;-140.72;100.00;61589.38;5066510;28;20332;-70
2023/10/27 03:23:24;;;;;;;;;;;;;;;-140.72;100.00;61625.97;5063520;28;19982;-70
2023/10/27 03:25:49;;;;;;;;;;;;;;;-140.72;100.00;61605.63;5071465;28;20363;-70
2023/10/27 03:28:15;;;;;;;;;;;;;;;-140.72;100.00;61658.50;5069757;28;19963;-70
2023/10/27 03:30:40;;;;;;;;;;;;;;;-140.72;100.00;61644.28;5071926;28;19921;-70
2023/10/27 03:33:06;;;;;;;;;;;;;;;-140.72;100.00;61642.25;5070760;28;20017;-70
2023/10/27 03:35:31;;;;;;;;;;;;;;;-140.72;100.00;61634.09;5067841;28;19920;-69
2023/10/27 03:37:56;;;;;;;;;;;;;;;-140.72;100.00;61658.50;5070951;28;19920;-71
2023/10/27 03:40:21;;;;;;;;;;;;;;;-140.72;100.00;61668.69;5071621;28;19928;-69
2023/10/27 03:42:47;;;;;;;;;;;;;;;-140.72;100.00;61687.00;5071651;28;19928;-69
2023/10/27 03:45:12;;;;;;;;;;;;;;;-140.72;100.00;61662.59;5068564;28;19921;-69
2023/10/27 03:47:37;;;;;;;;;;;;;;;-140.72;100.00;61729.69;5069835;28;19950;-70
2023/10/27 03:50:02;;;;;;;;;;;;;;;-140.72;100.00;61715.47;5066020;28;19931;-69
2023/10/27 03:52:28;;;;;;;;;;;;;;;-140.72;100.00;61676.81;5073788;28;19931;-70
2023/10/27 03:54:53;;;;;;;;;;;;;;;-140.72;100.00;61725.63;5078397;28;19920;-70
2023/10/27 03:57:18;;;;;;;;;;;;;;;-140.72;100.00;61735.81;5073398;28;20350;-70
2023/10/27 03:59:43;;;;;;;;;;;;;;;-140.72;100.00;61725.63;5073756;28;19958;-69
2023/10/27 04:02:08;;;;;;;;;;;;;;;-140.72;100.00;61713.44;5070576;28;19967;-69
2023/10/27 04:04:34;;;;;;;;;;;;;;;-140.72;100.00;61739.88;5073618;28;20379;-70
2023/10/27 04:07:01;;;;;;;;;;;;;;;-140.72;100.00;61731.72;5068204;28;20371;-70
2023/10/27 04:09:26;;;;;;;;;;;;;;;-140.72;100.00;61727.66;5072773;28;19924;-70
2023/10/27 04:11:51;;;;;;;;;;;;;;;-140.72;100.00;61752.06;5071762;28;20347;-70
2023/10/27 04:14:17;;;;;;;;;;;;;;;-140.72;100.00;61695.13;5071822;28;19921;-70
2023/10/27 04:16:42;;;;;;;;;;;;;;;-140.72;100.00;61750.03;5073801;28;19927;-70
2023/10/27 04:19:07;;;;;;;;;;;;;;;-140.72;100.00;61699.19;5071990;28;19920;-69
2023/10/27 04:21:33;;;;;;;;;;;;;;;-140.72;100.00;61721.56;5075107;28;19989;-69
2023/10/27 04:23:58;;;;;;;;;;;;;;;-140.72;100.00;61748.00;5072493;28;19920;-69
2023/10/27 04:26:24;;;;;;;;;;;;;;;-140.72;100.00;61723.59;5079122;28;20015;-69
2023/10/27 04:28:49;;;;;;;;;;;;;;;-140.72;100.00;61713.44;5077750;28;19924;-70
2023/10/27 04:31:14;;;;;;;;;;;;;;;-140.72;100.00;61752.06;5074124;28;19925;-69
2023/10/27 04:33:39;;;;;;;;;;;;;;;-140.72;100.00;61715.47;5067624;28;19921;-70
2023/10/27 04:36:05;;;;;;;;;;;;;;;-140.72;100.00;61756.13;5073103;28;19920;-69
2023/10/27 04:38:30;;;;;;;;;;;;;;;-140.72;100.00;61768.34;5072653;28;19920;-71
2023/10/27 04:40:56;;;;;;;;;;;;;;;-140.72;100.00;61754.09;5075303;28;19924;-69
2023/10/27 04:43:22;;;;;;;;;;;;;;;-140.72;100.00;61762.25;5071954;28;19927;-69
2023/10/27 04:45:49;;;;;;;;;;;;;;;-140.72;100.00;61786.66;5064133;28;19942;-70
2023/10/27 04:48:15;;;;;;;;;;;;;;;-140.72;100.00;61794.78;5066021;28;20058;-69
2023/10/27 04:50:41;;;;;;;;;;;;;;;-140.72;100.00;61764.28;5070211;28;20425;-70
2023/10/27 04:53:07;;;;;;;;;;;;;;;-140.72;100.00;61776.47;5086890;28;19931;-70
2023/10/27 04:55:32;;;;;;;;;;;;;;;-140.72;100.00;61796.81;5068214;28;19920;-70
2023/10/27 04:57:57;;;;;;;;;;;;;;;-140.72;100.00;61784.63;5070598;28;19927;-73
2023/10/27 05:00:22;;;;;;;;;;;;;;;-140.72;100.00;61813.09;5067678;28;19946;-73
2023/10/27 05:02:49;;;;;;;;;;;;;;;-140.72;100.00;61792.75;5066590;28;19972;-72
2023/10/27 05:05:14;;;;;;;;;;;;;;;-140.72;100.00;61813.09;5066396;28;20429;-70
2023/10/27 05:07:40;;;;;;;;;;;;;;;-140.72;100.00;61829.38;5068742;28;19956;-70
2023/10/27 05:10:07;;;;;;;;;;;;;;;-140.72;100.00;61817.16;5064760;28;20003;-70
2023/10/27 05:12:33;;;;;;;;;;;;;;;-140.72;100.00;61807.00;5068704;28;20466;-70
2023/10/27 05:14:58;;;;;;;;;;;;;;;-140.72;100.00;61776.47;5067936;28;20014;-70
2023/10/27 05:17:23;;;;;;;;;;;;;;;-140.72;100.00;61800.88;5066026;28;20007;-70
2023/10/27 05:19:48;;;;;;;;;;;;;;;-140.72;100.00;61800.88;5067099;28;19928;-70
2023/10/27 05:22:14;;;;;;;;;;;;;;;-140.72;100.00;61790.72;5070937;28;19968;-70
2023/10/27 05:24:39;;;;;;;;;;;;;;;-140.72;100.00;61813.09;5067309;28;19921;-71
2023/10/27 05:27:04;;;;;;;;;;;;;;;-140.72;100.00;61782.59;5066972;28;19920;-70
2023/10/27 05:29:30;;;;;;;;;;;;;;;-140.72;100.00;61776.47;5066963;28;19924;-69
2023/10/27 05:31:55;;;;;;;;;;;;;;;-140.72;100.00;61790.72;5067431;28;19932;-70
2023/10/27 05:34:20;;;;;;;;;;;;;;;-140.72;100.00;61768.34;5066861;28;19927;-70
2023/10/27 05:36:45;;;;;;;;;;;;;;;-140.72;100.00;61748.00;5067239;28;19925;-69
2023/10/27 05:39:17;;;;;;;;;;;;;;;-140.72;100.00;61778.50;5074465;28;19934;-70
2023/10/27 05:41:48;;;;;;;;;;;;;;;-140.72;100.00;61821.22;5068942;28;19921;-70
2023/10/27 05:44:14;;;;;;;;;;;;;;;-140.72;100.00;61737.84;5070344;28;19932;-72
2023/10/27 05:46:39;;;;;;;;;;;;;;;-140.72;100.00;61780.53;5068140;28;19920;-71
2023/10/27 05:49:05;;;;;;;;;;;;;;;-140.72;100.00;61768.34;5071754;28;20286;-72
2023/10/27 05:51:30;;;;;;;;;;;;;;;-140.72;100.00;61711.41;5061936;28;19921;-72
2023/10/27 05:53:55;;;;;;;;;;;;;;;-140.72;100.00;61743.94;5063889;28;19936;-72
2023/10/27 05:56:21;;;;;;;;;;;;;;;-140.72;100.00;61764.28;5067221;28;19950;-73
2023/10/27 05:58:47;;;;;;;;;;;;;;;-140.72;100.00;61731.72;5061774;28;19932;-72
2023/10/27 06:01:12;;;;;;;;;;;;;;;-140.72;100.00;61737.84;5065829;28;19920;-72
2023/10/27 06:03:37;;;;;;;;;;;;;;;-140.72;100.00;61691.06;5067355;28;19925;-73
2023/10/27 06:06:03;;;;;;;;;;;;;;;-140.72;100.00;61678.84;5065837;28;19932;-73
2023/10/27 06:08:28;;;;;;;;;;;;;;;-140.72;100.00;61735.81;5066679;28;19978;-72
2023/10/27 06:10:53;;;;;;;;;;;;;;;-140.72;100.00;61719.53;5066030;28;19921;-72
2023/10/27 06:13:19;;;;;;;;;;;;;;;-140.72;100.00;61682.91;5068098;28;19928;-73
2023/10/27 06:15:44;;;;;;;;;;;;;;;-140.72;100.00;61717.50;5065889;28;19927;-72
2023/10/27 06:18:10;;;;;;;;;;;;;;;-140.72;100.00;61723.59;5064294;28;20028;-72
2023/10/27 06:20:35;;;;;;;;;;;;;;;-140.72;100.00;61711.41;5067043;28;20367;-70
2023/10/27 06:23:00;;;;;;;;;;;;;;;-140.72;100.00;61707.31;5075585;28;20008;-70
2023/10/27 06:25:25;;;;;;;;;;;;;;;-140.72;100.00;61705.28;5067113;28;20035;-70
2023/10/27 06:27:54;;;;;;;;;;;;;;;-140.72;100.00;61727.66;5073565;28;19942;-70
2023/10/27 06:30:20;;;;;;;;;;;;;;;-140.72;100.00;61705.28;5075828;28;20014;-70
2023/10/27 06:32:46;;;;;;;;;;;;;;;-140.72;100.00;61768.34;5070632;28;19960;-70
2023/10/27 06:35:11;;;;;;;;;;;;;;;-140.72;100.00;61725.63;5076273;28;20366;-70
2023/10/27 06:37:36;;;;;;;;;;;;;;;-140.72;100.00;61750.03;5070940;28;19921;-70
2023/10/27 06:40:01;;;;;;;;;;;;;;;-140.72;100.00;61729.69;5061481;28;19929;-74
2023/10/27 06:42:26;;;;;;;;;;;;;;;-140.72;100.00;61723.59;5064271;28;20401;-72
2023/10/27 06:44:52;;;;;;;;;;;;;;;-140.72;100.00;61735.81;5069266;28;19920;-72
2023/10/27 06:47:18;;;;;;;;;;;;;;;-140.72;100.00;61748.00;5072471;28;19917;-73
2023/10/27 06:49:44;;;;;;;;;;;;;;;-140.72;100.00;61731.72;5061380;28;19928;-74
2023/10/27 06:52:09;;;;;;;;;;;;;;;-140.72;100.00;61745.97;5073361;28;20359;-74
2023/10/27 06:54:34;;;;;;;;;;;;;;;-140.72;100.00;61709.38;5073244;28;20086;-74
2023/10/27 06:56:59;;;;;;;;;;;;;;;-140.72;100.00;61713.44;5072537;28;20312;-73
2023/10/27 06:59:24;;;;;;;;;;;;;;;-140.72;100.00;61687.00;5074869;28;19924;-74
2023/10/27 07:01:52;;;;;;;;;;;;;;;-140.72;100.00;61703.25;5068327;28;19920;-73
2023/10/27 07:04:17;;;;;;;;;;;;;;;-140.72;100.00;61705.28;5074169;28;19917;-71
2023/10/27 07:06:42;;;;;;;;;;;;;;;-140.72;100.00;61723.59;5077863;28;20400;-71
2023/10/27 07:09:07;;;;;;;;;;;;;;;-140.72;100.00;61709.38;5079311;28;19973;-71
2023/10/27 07:11:32;;;;;;;;;;;;;;;-140.72;100.00;61678.84;5069171;28;20015;-71
2023/10/27 07:13:58;;;;;;;;;;;;;;;-140.72;100.00;61668.69;5075597;28;20022;-71
2023/10/27 07:16:23;;;;;;;;;;;;;;;-140.72;100.00;61703.25;5073653;28;20007;-71
2023/10/27 07:18:48;;;;;;;;;;;;;;;-140.72;100.00;61666.66;5078691;28;19942;-71
2023/10/27 07:21:13;;;;;;;;;;;;;;;-140.72;100.00;61658.50;5073881;28;19955;-72
2023/10/27 07:23:39;;;;;;;;;;;;;;;-140.72;100.00;61701.22;5078391;28;19923;-72
2023/10/27 07:26:14;;;;;;;;;;;;;;;-140.72;100.00;61660.56;5090116;28;20059;-71
2023/10/27 07:28:39;;;;;;;;;;;;;;;-140.72;100.00;61687.00;5081528;28;19917;-71
2023/10/27 07:31:04;;;;;;;;;;;;;;;-140.72;100.00;61684.97;5071814;28;20293;-71
2023/10/27 07:33:30;;;;;;;;;;;;;;;-140.72;100.00;61654.44;5073633;28;20042;-73
2023/10/27 07:35:55;;;;;;;;;;;;;;;-140.72;100.00;61658.50;5085454;28;20015;-73
2023/10/27 07:38:20;;;;;;;;;;;;;;;-140.72;100.00;61656.47;5072915;28;19965;-76
2023/10/27 07:40:45;;;;;;;;;;;;;;;-140.72;100.00;61662.59;5072152;28;19947;-73
2023/10/27 07:43:11;;;;;;;;;;;;;;;-140.72;100.00;61623.94;5071208;28;19920;-74
2023/10/27 07:45:36;;;;;;;;;;;;;;;-140.72;100.00;61617.84;5067063;28;19921;-76
2023/10/27 07:48:03;;;;;;;;;;;;;;;-140.72;100.00;61648.34;5071345;28;19983;-75
2023/10/27 07:50:28;;;;;;;;;;;;;;;-140.72;100.00;61611.72;5067110;28;19925;-73
2023/10/27 07:52:53;;;;;;;;;;;;;;;-140.72;100.00;61662.59;5072466;28;19920;-74
2023/10/27 07:55:18;;;;;;;;;;;;;;;-140.72;100.00;61628.00;5070791;28;19928;-72
2023/10/27 07:57:43;;;;;;;;;;;;;;;-140.72;100.00;61630.03;5065069;28;19927;-72
2023/10/27 08:00:12;;;;;;;;;;;;;;;-140.72;100.00;61654.44;5071248;28;19921;-73
2023/10/27 08:02:38;;;;;;;;;;;;;;;-140.72;100.00;61664.63;5067508;28;19926;-72
2023/10/27 08:05:03;;;;;;;;;;;;;;;-140.72;100.00;61613.78;5063070;28;19920;-73
2023/10/27 08:07:29;;;;;;;;;;;;;;;-140.72;100.00;61617.84;5062846;28;19920;-73
2023/10/27 08:09:55;;;;;;;;;;;;;;;-140.72;100.00;61640.22;5073585;28;20001;-73
2023/10/27 08:12:20;;;;;;;;;;;;;;;-140.72;100.00;61670.72;5074345;28;19916;-72
2023/10/27 08:14:46;;;;;;;;;;;;;;;-140.72;100.00;61638.19;5076876;28;19928;-72
2023/10/27 08:17:11;;;;;;;;;;;;;;;-140.72;100.00;61652.41;5067363;28;20010;-72
2023/10/27 08:19:39;;;;;;;;;;;;;;;-140.72;100.00;61623.94;5065291;28;20028;-72
2023/10/27 08:22:04;;;;;;;;;;;;;;;-140.72;100.00;61560.88;5068310;28;20018;-72
2023/10/27 08:24:30;;;;;;;;;;;;;;;-140.72;100.00;61558.84;5065521;28;20020;-73
2023/10/27 08:26:55;;;;;;;;;;;;;;;-140.72;100.00;61593.44;5068956;28;20415;-72
2023/10/27 08:29:20;;;;;;;;;;;;;;;-140.72;100.00;61589.38;5066688;28;19927;-72
2023/10/27 08:31:45;;;;;;;;;;;;;;;-140.72;100.00;61550.72;5061243;28;19963;-73
2023/10/27 08:34:11;;;;;;;;;;;;;;;-140.72;100.00;61564.97;5068682;28;19920;-73
2023/10/27 08:36:36;;;;;;;;;;;;;;;-140.72;100.00;61552.75;5075013;28;19924;-73
2023/10/27 08:39:01;;;;;;;;;;;;;;;-140.72;100.00;61514.13;5075170;28;19921;-73
2023/10/27 08:41:28;;;;;;;;;;;;;;;-140.72;100.00;61512.06;5077555;28;19920;-73
2023/10/27 08:43:54;;;;;;;;;;;;;;;-140.72;100.00;61514.13;5071402;28;19983;-73
2023/10/27 08:46:20;;;;;;;;;;;;;;;-140.72;100.00;61487.69;5067286;28;19928;-73
2023/10/27 08:48:45;;;;;;;;;;;;;;;-140.72;100.00;61473.44;5070075;28;20360;-72
2023/10/27 08:51:13;;;;;;;;;;;;;;;-140.72;100.00;61426.66;5073034;28;19960;-72
2023/10/27 08:53:40;;;;;;;;;;;;;;;-140.72;100.00;61451.06;5075107;28;19946;-72
2023/10/27 08:56:07;;;;;;;;;;;;;;;-140.72;100.00;61396.16;5067852;28;20340;-73
2023/10/27 08:58:32;;;;;;;;;;;;;;;-140.72;100.00;61381.91;5071708;28;19987;-72
2023/10/27 09:00:57;;;;;;;;;;;;;;;-140.72;100.00;61351.41;5072477;28;19955;-73
2023/10/27 09:03:22;;;;;;;;;;;;;;;-140.72;100.00;61316.84;5072342;28;20384;-73
2023/10/27 09:05:48;;;;;;;;;;;;;;;-140.72;100.00;61286.34;5069981;28;20339;-73
2023/10/27 09:08:13;;;;;;;;;;;;;;;-140.72;100.00;61284.31;5071015;28;19931;-72
2023/10/27 09:10:38;;;;;;;;;;;;;;;-140.72;100.00;61272.09;5072588;28;19931;-72
2023/10/27 09:13:09;;;;;;;;;;;;;;;-140.72;100.00;61268.03;5071889;28;21520;-73
2023/10/27 09:15:40;;;;;;;;;;;;;;;-140.72;100.00;61239.56;5074553;28;20288;-71
2023/10/27 09:18:05;;;;;;;;;;;;;;;-140.72;100.00;61249.72;5086748;28;19927;-71
2023/10/27 09:20:30;;;;;;;;;;;;;;;-140.72;100.00;61261.94;5078621;28;19916;-71
2023/10/27 09:22:58;;;;;;;;;;;;;;;-140.72;100.00;61241.59;5080485;28;19921;-74
2023/10/27 09:25:28;;;;;;;;;;;;;;;-140.72;100.00;61219.22;5071170;28;19920;-72
2023/10/27 09:27:54;;;;;;;;;;;;;;;-140.72;100.00;61190.75;5073570;28;19917;-73
2023/10/27 09:30:26;;;;;;;;;;;;;;;-140.72;100.00;61211.09;5073317;28;19921;-72
2023/10/27 09:32:51;;;;;;;;;;;;;;;-140.72;100.00;61211.09;5070460;28;19920;-75
2023/10/27 09:35:18;;;;;;;;;;;;;;;-140.72;100.00;61152.13;5069318;28;19935;-74
2023/10/27 09:37:46;;;;;;;;;;;;;;;-140.72;100.00;61162.28;5070189;28;19956;-73
2023/10/27 09:40:13;;;;;;;;;;;;;;;-140.72;100.00;61117.53;5073985;28;19929;-78
2023/10/27 09:42:39;;;;;;;;;;;;;;;-140.72;100.00;61042.31;5070606;28;20019;-73
2023/10/27 09:45:11;;;;;;;;;;;;;;;-140.72;100.00;61032.13;5072445;28;20266;-78
2023/10/27 09:47:50;;;;;;;;;;;;;;;-140.72;100.00;60977.22;5070203;28;19928;-73
2023/10/27 09:50:24;;;;;;;;;;;;;;;-140.72;100.00;60985.38;5072229;28;19935;-74
2023/10/27 09:52:49;;;;;;;;;;;;;;;-140.72;100.00;60948.75;5073407;28;19920;-73
2023/10/27 09:55:17;;;;;;;;;;;;;;;-140.72;100.00;60942.66;5069997;28;19943;-72
2023/10/27 09:57:45;;;;;;;;;;;;;;;-140.72;100.00;60934.53;5065517;28;19960;-73
2023/10/27 10:00:16;;;;;;;;;;;;;;;-140.72;100.00;60908.09;5084594;28;19927;-72
2023/10/27 10:02:42;;;;;;;;;;;;;;;-140.72;100.00;60918.25;5072803;28;19920;-72
2023/10/27 10:05:09;;;;;;;;;;;;;;;-140.72;100.00;60881.66;5071671;28;19967;-72
2023/10/27 10:07:40;;;;;;;;;;;;;;;-140.72;100.00;60840.97;5080433;28;20000;-72
2023/10/27 10:10:26;;;;;;;;;;;;;;;-140.72;100.00;60851.16;5077842;28;20231;-72
2023/10/27 10:13:00;;;;;;;;;;;;;;;-140.72;100.00;60820.66;5067950;28;19928;-72
2023/10/27 10:15:31;;;;;;;;;;;;;;;-140.72;100.00;60753.56;5070705;28;19926;-72
2023/10/27 10:17:56;;;;;;;;;;;;;;;-140.72;100.00;60755.59;5059402;28;20371;-73
2023/10/27 10:20:41;;;;;;;;;;;;;;;-140.72;100.00;60712.88;5070862;28;19927;-74
2023/10/27 10:23:06;;;;;;;;;;;;;;;-140.72;100.00;60729.16;5074431;28;20003;-74
2023/10/27 10:25:31;;;;;;;;;;;;;;;-140.72;100.00;60714.91;5072044;28;20007;-73
2023/10/27 10:28:09;;;;;;;;;;;;;;;-140.72;100.00;60682.38;5066711;28;19936;-71
2023/10/27 10:30:36;;;;;;;;;;;;;;;-140.72;100.00;60700.69;5060327;28;20298;-71
2023/10/27 10:33:14;;;;;;;;;;;;;;;-140.72;100.00;60692.53;5067716;28;19950;-71
2023/10/27 10:35:39;;;;;;;;;;;;;;;-140.72;100.00;60625.44;5072264;28;19984;-71
2023/10/27 10:38:20;;;;;;;;;;;;;;;-140.72;100.00;60592.91;5075786;28;19920;-73
2023/10/27 10:40:51;;;;;;;;;;;;;;;-140.72;100.00;60611.22;5070374;28;19924;-75
2023/10/27 10:43:29;;;;;;;;;;;;;;;-140.72;100.00;60605.13;5068151;28;20345;-75
2023/10/27 10:45:56;;;;;;;;;;;;;;;-140.72;100.00;60574.63;5070234;28;19952;-74
2023/10/27 10:48:47;;;;;;;;;;;;;;;-140.72;100.00;60572.59;5068922;28;19925;-74
2023/10/27 10:51:47;;;;;;;;;;;;;;;-140.72;100.00;60621.38;5064162;28;19935;-73
2023/10/27 10:54:27;;;;;;;;;;;;;;;-140.72;100.00;60584.78;5065373;28;20022;-73
2023/10/27 10:57:02;;;;;;;;;;;;;;;-140.72;100.00;60529.88;5063258;28;19970;-74
2023/10/27 10:59:27;;;;;;;;;;;;;;;-140.72;100.00;60418.06;5071744;28;19920;-74
2023/10/27 11:01:57;;;;;;;;;;;;;;;-140.72;100.00;60418.06;5074967;28;20088;-81
2023/10/27 11:04:29;;;;;;;;;;;;;;;-140.72;100.00;60320.47;5079654;28;19920;-77
2023/10/27 11:06:57;;;;;;;;;;;;;;;-140.72;100.00;60257.44;5081091;28;19920;-75
2023/10/27 11:09:25;;;;;;;;;;;;;;;-140.72;100.00;60117.16;5069099;28;19921;-76
2023/10/27 11:11:50;;;;;;;;;;;;;;;-140.72;100.00;60106.97;5069196;28;20007;-77
2023/10/27 11:14:15;;;;;;;;;;;;;;;-140.72;100.00;60015.50;5075457;28;20357;-75
2023/10/27 11:16:41;;;;;;;;;;;;;;;-140.72;100.00;59875.22;5069740;28;19943;-76
2023/10/27 11:19:14;;;;;;;;;;;;;;;-140.72;100.00;59836.59;5071703;28;20405;-77
2023/10/27 11:21:39;;;;;;;;;;;;;;;-140.72;100.00;59808.13;5070960;28;20003;-76
2023/10/27 11:24:07;;;;;;;;;;;;;;;-140.72;100.00;59844.72;5070318;28;20054;-76
2023/10/27 11:26:38;;;;;;;;;;;;;;;-140.72;100.00;59824.41;5075673;28;20294;-81
2023/10/27 11:29:07;;;;;;;;;;;;;;;-140.72;100.00;59881.31;5064375;28;19920;-77
2023/10/27 11:31:32;;;;;;;;;;;;;;;-140.72;100.00;59885.38;5064277;28;19974;-75
2023/10/27 11:34:02;;;;;;;;;;;;;;;-140.72;100.00;59905.72;5073027;28;19970;-74
2023/10/27 11:36:35;;;;;;;;;;;;;;;-140.72;100.00;59924.00;5074567;28;20256;-74
2023/10/27 11:39:18;;;;;;;;;;;;;;;-140.72;100.00;59978.91;5076323;28;19920;-74
2023/10/27 11:41:54;;;;;;;;;;;;;;;-140.72;100.00;60037.84;5063839;28;19947;-77
2023/10/27 11:44:19;;;;;;;;;;;;;;;-140.72;100.00;60109.00;5068702;28;20354;-75
2023/10/27 11:46:46;;;;;;;;;;;;;;;-140.72;100.00;60145.59;5068915;28;20015;-74
2023/10/27 11:49:11;;;;;;;;;;;;;;;-140.72;100.00;60208.63;5070665;28;19923;-76
2023/10/27 11:51:44;;;;;;;;;;;;;;;-140.72;100.00;60287.94;5076034;28;19920;-75
2023/10/27 11:54:09;;;;;;;;;;;;;;;-140.72;100.00;60298.09;5066640;28;20264;-73
2023/10/27 11:56:34;;;;;;;;;;;;;;;-140.72;100.00;60298.09;5067333;28;19946;-74
2023/10/27 11:59:00;;;;;;;;;;;;;;;-140.72;100.00;60367.22;5067710;28;19921;-75
2023/10/27 12:01:25;;;;;;;;;;;;;;;-140.72;100.00;60355.03;5080069;28;19928;-76
2023/10/27 12:03:50;;;;;;;;;;;;;;;-140.72;100.00;60373.31;5071589;28;20007;-75
2023/10/27 12:06:15;;;;;;;;;;;;;;;-140.72;100.00;60428.22;5066277;28;19927;-75
2023/10/27 12:08:40;;;;;;;;;;;;;;;-140.72;100.00;60377.38;5074683;28;20019;-75
2023/10/27 12:11:06;;;;;;;;;;;;;;;-140.72;100.00;60361.13;5072978;28;20008;-74
2023/10/27 12:13:31;;;;;;;;;;;;;;;-140.72;100.00;60344.84;5073732;28;19920;-75
2023/10/27 12:15:56;;;;;;;;;;;;;;;-140.72;100.00;60385.53;5084125;28;19924;-75